sensor_id;sensor_type;location;lat;lon;timestamp;P1;durP1;ratioP1;P2;durP2;ratioP2
3081;SDS011;1551;51.046;7.010;2023-03-14T00:02:13;4.45;;;1.70;;
3081;SDS011;1551;51.046;7.010;2023-03-14T00:05:03;4.57;;;1.70;;
3081;SDS011;1551;51.046;7.010;2023-03-14T00:07:54;6.35;;;1.80;;
3081;SDS011;1551;51.046;7.010;2023-03-14T00:10:43;5.07;;;1.40;;
3081;SDS011;1551;51.046;7.010;2023-03-14T00:13:32;7.93;;;3.40;;
3081;SDS011;1551;51.046;7.010;2023-03-14T00:16:21;5.20;;;1.70;;
3081;SDS011;1551;51.046;7.010;2023-03-14T00:19:10;6.63;;;4.53;;
3081;SDS011;1551;51.046;7.010;2023-03-14T00:21:59;8.90;;;3.92;;
3081;SDS011;1551;51.046;7.010;2023-03-14T00:24:48;5.30;;;1.75;;
3081;SDS011;1551;51.046;7.010;2023-03-14T00:27:37;5.53;;;1.33;;
3081;SDS011;1551;51.046;7.010;2023-03-14T00:30:27;4.32;;;1.50;;
3081;SDS011;1551;51.046;7.010;2023-03-14T00:33:16;5.22;;;1.55;;
3081;SDS011;1551;51.046;7.010;2023-03-14T00:36:06;4.57;;;1.52;;
3081;SDS011;1551;51.046;7.010;2023-03-14T00:39:00;4.00;;;1.70;;
3081;SDS011;1551;51.046;7.010;2023-03-14T00:41:48;6.05;;;1.80;;
3081;SDS011;1551;51.046;7.010;2023-03-14T00:44:37;4.35;;;1.20;;
3081;SDS011;1551;51.046;7.010;2023-03-14T00:47:29;3.23;;;1.03;;
3081;SDS011;1551;51.046;7.010;2023-03-14T00:50:18;5.03;;;1.60;;
3081;SDS011;1551;51.046;7.010;2023-03-14T00:53:08;4.45;;;1.40;;
3081;SDS011;1551;51.046;7.010;2023-03-14T00:55:59;4.82;;;2.05;;
3081;SDS011;1551;51.046;7.010;2023-03-14T00:58:55;6.40;;;2.10;;
3081;SDS011;1551;51.046;7.010;2023-03-14T01:01:44;6.60;;;2.30;;
3081;SDS011;1551;51.046;7.010;2023-03-14T01:04:35;4.45;;;1.90;;
3081;SDS011;1551;51.046;7.010;2023-03-14T01:07:25;6.28;;;1.40;;
3081;SDS011;1551;51.046;7.010;2023-03-14T01:10:14;3.03;;;1.17;;
3081;SDS011;1551;51.046;7.010;2023-03-14T01:13:04;4.63;;;1.00;;
3081;SDS011;1551;51.046;7.010;2023-03-14T01:15:53;4.35;;;0.90;;
3081;SDS011;1551;51.046;7.010;2023-03-14T01:18:42;5.30;;;1.38;;
3081;SDS011;1551;51.046;7.010;2023-03-14T01:21:33;5.63;;;1.20;;
3081;SDS011;1551;51.046;7.010;2023-03-14T01:24:23;4.37;;;1.20;;
3081;SDS011;1551;51.046;7.010;2023-03-14T01:27:13;3.15;;;1.15;;
3081;SDS011;1551;51.046;7.010;2023-03-14T01:30:02;3.33;;;1.25;;
3081;SDS011;1551;51.046;7.010;2023-03-14T01:32:54;2.67;;;1.15;;
3081;SDS011;1551;51.046;7.010;2023-03-14T01:35:43;3.42;;;0.88;;
3081;SDS011;1551;51.046;7.010;2023-03-14T01:38:32;4.15;;;1.10;;
3081;SDS011;1551;51.046;7.010;2023-03-14T01:41:24;4.30;;;1.38;;
3081;SDS011;1551;51.046;7.010;2023-03-14T01:44:16;7.30;;;1.20;;
3081;SDS011;1551;51.046;7.010;2023-03-14T01:47:05;4.50;;;1.67;;
3081;SDS011;1551;51.046;7.010;2023-03-14T01:52:53;4.55;;;1.58;;
3081;SDS011;1551;51.046;7.010;2023-03-14T01:55:44;4.70;;;1.60;;
3081;SDS011;1551;51.046;7.010;2023-03-14T01:58:33;3.67;;;1.00;;
3081;SDS011;1551;51.046;7.010;2023-03-14T02:01:25;6.53;;;1.58;;
3081;SDS011;1551;51.046;7.010;2023-03-14T02:04:15;4.40;;;1.30;;
3081;SDS011;1551;51.046;7.010;2023-03-14T02:07:12;4.68;;;1.52;;
3081;SDS011;1551;51.046;7.010;2023-03-14T02:10:08;3.60;;;1.70;;
3081;SDS011;1551;51.046;7.010;2023-03-14T02:12:59;3.70;;;1.10;;
3081;SDS011;1551;51.046;7.010;2023-03-14T02:16:11;4.90;;;1.48;;
3081;SDS011;1551;51.046;7.010;2023-03-14T02:19:18;3.78;;;1.10;;
3081;SDS011;1551;51.046;7.010;2023-03-14T02:22:23;5.70;;;1.80;;
3081;SDS011;1551;51.046;7.010;2023-03-14T02:25:27;6.80;;;2.57;;
3081;SDS011;1551;51.046;7.010;2023-03-14T02:28:36;5.93;;;1.70;;
3081;SDS011;1551;51.046;7.010;2023-03-14T02:31:26;4.00;;;1.10;;
3081;SDS011;1551;51.046;7.010;2023-03-14T02:34:16;4.97;;;1.00;;
3081;SDS011;1551;51.046;7.010;2023-03-14T02:37:06;4.05;;;1.30;;
3081;SDS011;1551;51.046;7.010;2023-03-14T02:39:55;4.18;;;1.10;;
3081;SDS011;1551;51.046;7.010;2023-03-14T02:42:44;2.97;;;0.90;;
3081;SDS011;1551;51.046;7.010;2023-03-14T02:45:41;6.03;;;3.60;;
3081;SDS011;1551;51.046;7.010;2023-03-14T02:48:45;7.15;;;2.10;;
3081;SDS011;1551;51.046;7.010;2023-03-14T02:51:35;3.22;;;0.90;;
3081;SDS011;1551;51.046;7.010;2023-03-14T02:54:25;6.13;;;1.30;;
3081;SDS011;1551;51.046;7.010;2023-03-14T02:57:14;6.30;;;3.47;;
3081;SDS011;1551;51.046;7.010;2023-03-14T03:00:03;6.80;;;2.10;;
3081;SDS011;1551;51.046;7.010;2023-03-14T03:02:56;3.47;;;1.00;;
3081;SDS011;1551;51.046;7.010;2023-03-14T03:05:52;4.60;;;1.50;;
3081;SDS011;1551;51.046;7.010;2023-03-14T03:08:42;2.95;;;0.90;;
3081;SDS011;1551;51.046;7.010;2023-03-14T03:11:30;3.80;;;1.10;;
3081;SDS011;1551;51.046;7.010;2023-03-14T03:14:20;4.82;;;1.25;;
3081;SDS011;1551;51.046;7.010;2023-03-14T03:17:10;5.07;;;0.80;;
3081;SDS011;1551;51.046;7.010;2023-03-14T03:20:00;3.15;;;1.17;;
3081;SDS011;1551;51.046;7.010;2023-03-14T03:22:49;3.97;;;1.50;;
3081;SDS011;1551;51.046;7.010;2023-03-14T03:25:38;3.13;;;1.17;;
3081;SDS011;1551;51.046;7.010;2023-03-14T03:28:28;3.00;;;0.93;;
3081;SDS011;1551;51.046;7.010;2023-03-14T03:31:18;4.38;;;1.20;;
3081;SDS011;1551;51.046;7.010;2023-03-14T03:34:07;3.80;;;1.23;;
3081;SDS011;1551;51.046;7.010;2023-03-14T03:36:57;3.00;;;0.90;;
3081;SDS011;1551;51.046;7.010;2023-03-14T03:39:47;4.78;;;1.23;;
3081;SDS011;1551;51.046;7.010;2023-03-14T03:42:36;3.40;;;1.58;;
3081;SDS011;1551;51.046;7.010;2023-03-14T03:45:26;4.43;;;1.90;;
3081;SDS011;1551;51.046;7.010;2023-03-14T03:48:18;3.90;;;1.80;;
3081;SDS011;1551;51.046;7.010;2023-03-14T03:51:07;4.10;;;1.50;;
3081;SDS011;1551;51.046;7.010;2023-03-14T03:54:01;4.35;;;1.42;;
3081;SDS011;1551;51.046;7.010;2023-03-14T03:56:54;3.53;;;1.42;;
3081;SDS011;1551;51.046;7.010;2023-03-14T03:59:43;5.60;;;1.30;;
3081;SDS011;1551;51.046;7.010;2023-03-14T04:02:32;6.10;;;1.67;;
3081;SDS011;1551;51.046;7.010;2023-03-14T04:05:21;7.90;;;1.85;;
3081;SDS011;1551;51.046;7.010;2023-03-14T04:08:17;4.68;;;1.60;;
3081;SDS011;1551;51.046;7.010;2023-03-14T04:11:06;5.18;;;1.80;;
3081;SDS011;1551;51.046;7.010;2023-03-14T04:14:14;7.03;;;1.90;;
3081;SDS011;1551;51.046;7.010;2023-03-14T04:17:03;4.28;;;1.63;;
3081;SDS011;1551;51.046;7.010;2023-03-14T04:19:52;3.88;;;1.80;;
3081;SDS011;1551;51.046;7.010;2023-03-14T04:22:44;6.00;;;1.80;;
3081;SDS011;1551;51.046;7.010;2023-03-14T04:25:33;5.80;;;2.00;;
3081;SDS011;1551;51.046;7.010;2023-03-14T04:28:26;7.65;;;1.90;;
3081;SDS011;1551;51.046;7.010;2023-03-14T04:31:19;7.63;;;1.80;;
3081;SDS011;1551;51.046;7.010;2023-03-14T04:34:10;10.20;;;2.20;;
3081;SDS011;1551;51.046;7.010;2023-03-14T04:37:05;4.68;;;1.90;;
3081;SDS011;1551;51.046;7.010;2023-03-14T04:40:02;5.25;;;1.80;;
3081;SDS011;1551;51.046;7.010;2023-03-14T04:42:55;10.80;;;2.30;;
3081;SDS011;1551;51.046;7.010;2023-03-14T04:45:44;10.67;;;2.30;;
3081;SDS011;1551;51.046;7.010;2023-03-14T04:48:34;6.70;;;1.90;;
3081;SDS011;1551;51.046;7.010;2023-03-14T04:51:24;9.90;;;2.60;;
3081;SDS011;1551;51.046;7.010;2023-03-14T04:54:16;9.13;;;2.30;;
3081;SDS011;1551;51.046;7.010;2023-03-14T04:57:06;6.03;;;1.92;;
3081;SDS011;1551;51.046;7.010;2023-03-14T04:59:58;8.40;;;1.75;;
3081;SDS011;1551;51.046;7.010;2023-03-14T05:03:07;6.85;;;2.05;;
3081;SDS011;1551;51.046;7.010;2023-03-14T05:06:10;4.97;;;1.70;;
3081;SDS011;1551;51.046;7.010;2023-03-14T05:09:19;6.15;;;1.80;;
3081;SDS011;1551;51.046;7.010;2023-03-14T05:12:23;5.07;;;1.50;;
3081;SDS011;1551;51.046;7.010;2023-03-14T05:15:20;4.30;;;1.60;;
3081;SDS011;1551;51.046;7.010;2023-03-14T05:18:32;7.22;;;1.50;;
3081;SDS011;1551;51.046;7.010;2023-03-14T05:21:34;3.70;;;1.50;;
3081;SDS011;1551;51.046;7.010;2023-03-14T05:24:32;4.45;;;1.30;;
3081;SDS011;1551;51.046;7.010;2023-03-14T05:27:25;7.63;;;1.60;;
3081;SDS011;1551;51.046;7.010;2023-03-14T05:30:34;4.43;;;1.20;;
3081;SDS011;1551;51.046;7.010;2023-03-14T05:33:44;2.97;;;1.00;;
3081;SDS011;1551;51.046;7.010;2023-03-14T05:36:47;2.67;;;1.10;;
3081;SDS011;1551;51.046;7.010;2023-03-14T05:39:49;3.78;;;1.02;;
3081;SDS011;1551;51.046;7.010;2023-03-14T05:42:58;4.63;;;1.40;;
3081;SDS011;1551;51.046;7.010;2023-03-14T05:46:02;2.80;;;0.88;;
3081;SDS011;1551;51.046;7.010;2023-03-14T05:49:20;2.00;;;0.60;;
3081;SDS011;1551;51.046;7.010;2023-03-14T05:52:28;3.40;;;1.20;;
3081;SDS011;1551;51.046;7.010;2023-03-14T05:55:25;3.30;;;0.75;;
3081;SDS011;1551;51.046;7.010;2023-03-14T05:58:38;2.80;;;0.90;;
3081;SDS011;1551;51.046;7.010;2023-03-14T06:01:46;3.22;;;1.55;;
3081;SDS011;1551;51.046;7.010;2023-03-14T06:04:42;2.20;;;0.60;;
3081;SDS011;1551;51.046;7.010;2023-03-14T06:07:31;3.60;;;0.70;;
3081;SDS011;1551;51.046;7.010;2023-03-14T06:10:20;2.20;;;0.70;;
3081;SDS011;1551;51.046;7.010;2023-03-14T06:13:09;3.00;;;1.10;;
3081;SDS011;1551;51.046;7.010;2023-03-14T06:15:58;2.42;;;0.70;;
3081;SDS011;1551;51.046;7.010;2023-03-14T06:18:48;2.53;;;0.70;;
3081;SDS011;1551;51.046;7.010;2023-03-14T06:21:39;2.70;;;0.85;;
3081;SDS011;1551;51.046;7.010;2023-03-14T06:24:28;2.80;;;0.70;;
3081;SDS011;1551;51.046;7.010;2023-03-14T06:27:17;2.80;;;1.02;;
3081;SDS011;1551;51.046;7.010;2023-03-14T06:30:07;3.20;;;1.00;;
3081;SDS011;1551;51.046;7.010;2023-03-14T06:32:56;2.90;;;0.70;;
3081;SDS011;1551;51.046;7.010;2023-03-14T06:35:46;3.67;;;1.20;;
3081;SDS011;1551;51.046;7.010;2023-03-14T06:38:35;2.90;;;1.02;;
3081;SDS011;1551;51.046;7.010;2023-03-14T06:41:26;4.70;;;1.00;;
3081;SDS011;1551;51.046;7.010;2023-03-14T06:44:15;2.70;;;0.90;;
3081;SDS011;1551;51.046;7.010;2023-03-14T06:47:04;3.10;;;0.97;;
3081;SDS011;1551;51.046;7.010;2023-03-14T06:49:55;4.32;;;1.17;;
3081;SDS011;1551;51.046;7.010;2023-03-14T06:52:44;4.85;;;1.48;;
3081;SDS011;1551;51.046;7.010;2023-03-14T06:55:37;4.45;;;1.20;;
3081;SDS011;1551;51.046;7.010;2023-03-14T06:58:26;4.20;;;1.30;;
3081;SDS011;1551;51.046;7.010;2023-03-14T07:01:25;3.47;;;0.90;;
3081;SDS011;1551;51.046;7.010;2023-03-14T07:04:19;4.00;;;1.00;;
3081;SDS011;1551;51.046;7.010;2023-03-14T07:07:11;2.72;;;1.20;;
3081;SDS011;1551;51.046;7.010;2023-03-14T07:09:59;3.80;;;1.50;;
3081;SDS011;1551;51.046;7.010;2023-03-14T07:12:50;3.43;;;1.60;;
3081;SDS011;1551;51.046;7.010;2023-03-14T07:15:41;3.90;;;1.55;;
3081;SDS011;1551;51.046;7.010;2023-03-14T07:18:32;3.40;;;1.23;;
3081;SDS011;1551;51.046;7.010;2023-03-14T07:21:21;3.20;;;1.00;;
3081;SDS011;1551;51.046;7.010;2023-03-14T07:24:10;3.33;;;1.00;;
3081;SDS011;1551;51.046;7.010;2023-03-14T07:27:00;3.10;;;1.10;;
3081;SDS011;1551;51.046;7.010;2023-03-14T07:29:49;3.20;;;1.20;;
3081;SDS011;1551;51.046;7.010;2023-03-14T07:32:38;2.80;;;1.30;;
3081;SDS011;1551;51.046;7.010;2023-03-14T07:35:27;3.40;;;1.30;;
3081;SDS011;1551;51.046;7.010;2023-03-14T07:38:17;2.83;;;1.30;;
3081;SDS011;1551;51.046;7.010;2023-03-14T07:41:33;2.35;;;1.05;;
3081;SDS011;1551;51.046;7.010;2023-03-14T07:44:45;4.03;;;1.20;;
3081;SDS011;1551;51.046;7.010;2023-03-14T07:47:34;2.97;;;1.10;;
3081;SDS011;1551;51.046;7.010;2023-03-14T07:50:26;2.92;;;1.00;;
3081;SDS011;1551;51.046;7.010;2023-03-14T07:53:15;3.03;;;1.20;;
3081;SDS011;1551;51.046;7.010;2023-03-14T07:56:04;3.88;;;1.20;;
3081;SDS011;1551;51.046;7.010;2023-03-14T07:58:54;2.83;;;1.05;;
3081;SDS011;1551;51.046;7.010;2023-03-14T08:01:43;2.70;;;1.20;;
3081;SDS011;1551;51.046;7.010;2023-03-14T08:04:32;2.90;;;1.40;;
3081;SDS011;1551;51.046;7.010;2023-03-14T08:07:21;2.30;;;1.10;;
3081;SDS011;1551;51.046;7.010;2023-03-14T08:10:10;4.07;;;1.30;;
3081;SDS011;1551;51.046;7.010;2023-03-14T08:12:59;2.80;;;1.10;;
3081;SDS011;1551;51.046;7.010;2023-03-14T08:15:49;2.35;;;0.90;;
3081;SDS011;1551;51.046;7.010;2023-03-14T08:18:39;3.40;;;1.00;;
3081;SDS011;1551;51.046;7.010;2023-03-14T08:21:28;2.90;;;1.10;;
3081;SDS011;1551;51.046;7.010;2023-03-14T08:24:17;2.67;;;0.80;;
3081;SDS011;1551;51.046;7.010;2023-03-14T08:27:06;3.60;;;1.17;;
3081;SDS011;1551;51.046;7.010;2023-03-14T08:29:55;3.20;;;1.00;;
3081;SDS011;1551;51.046;7.010;2023-03-14T08:32:44;2.80;;;1.20;;
3081;SDS011;1551;51.046;7.010;2023-03-14T08:35:32;2.50;;;0.80;;
3081;SDS011;1551;51.046;7.010;2023-03-14T08:38:22;3.00;;;1.00;;
3081;SDS011;1551;51.046;7.010;2023-03-14T08:41:11;2.60;;;1.10;;
3081;SDS011;1551;51.046;7.010;2023-03-14T08:44:00;1.95;;;0.70;;
3081;SDS011;1551;51.046;7.010;2023-03-14T08:46:49;2.20;;;0.80;;
3081;SDS011;1551;51.046;7.010;2023-03-14T08:49:38;2.40;;;0.80;;
3081;SDS011;1551;51.046;7.010;2023-03-14T08:52:27;2.00;;;0.70;;
3081;SDS011;1551;51.046;7.010;2023-03-14T08:55:16;2.50;;;0.70;;
3081;SDS011;1551;51.046;7.010;2023-03-14T08:58:05;2.90;;;0.80;;
3081;SDS011;1551;51.046;7.010;2023-03-14T09:00:54;2.90;;;0.80;;
3081;SDS011;1551;51.046;7.010;2023-03-14T09:03:43;3.03;;;1.10;;
3081;SDS011;1551;51.046;7.010;2023-03-14T09:06:32;2.80;;;0.68;;
3081;SDS011;1551;51.046;7.010;2023-03-14T09:09:21;3.97;;;1.20;;
3081;SDS011;1551;51.046;7.010;2023-03-14T09:12:11;3.15;;;1.40;;
3081;SDS011;1551;51.046;7.010;2023-03-14T09:15:00;4.10;;;1.10;;
3081;SDS011;1551;51.046;7.010;2023-03-14T09:17:49;2.60;;;0.80;;
3081;SDS011;1551;51.046;7.010;2023-03-14T09:20:39;2.40;;;1.00;;
3081;SDS011;1551;51.046;7.010;2023-03-14T09:23:28;2.42;;;0.80;;
3081;SDS011;1551;51.046;7.010;2023-03-14T09:26:17;2.35;;;0.82;;
3081;SDS011;1551;51.046;7.010;2023-03-14T09:29:06;2.97;;;0.80;;
3081;SDS011;1551;51.046;7.010;2023-03-14T09:31:55;3.10;;;1.10;;
3081;SDS011;1551;51.046;7.010;2023-03-14T09:34:45;3.00;;;1.25;;
3081;SDS011;1551;51.046;7.010;2023-03-14T09:37:34;2.95;;;0.90;;
3081;SDS011;1551;51.046;7.010;2023-03-14T09:40:23;2.80;;;1.10;;
3081;SDS011;1551;51.046;7.010;2023-03-14T09:43:14;3.38;;;0.95;;
3081;SDS011;1551;51.046;7.010;2023-03-14T09:46:05;2.90;;;0.70;;
3081;SDS011;1551;51.046;7.010;2023-03-14T09:48:56;2.90;;;1.00;;
3081;SDS011;1551;51.046;7.010;2023-03-14T09:51:46;3.63;;;1.25;;
3081;SDS011;1551;51.046;7.010;2023-03-14T09:54:39;4.50;;;1.03;;
3081;SDS011;1551;51.046;7.010;2023-03-14T09:57:32;4.45;;;1.40;;
3081;SDS011;1551;51.046;7.010;2023-03-14T10:00:25;2.92;;;0.80;;
3081;SDS011;1551;51.046;7.010;2023-03-14T10:06:19;2.45;;;1.05;;
3081;SDS011;1551;51.046;7.010;2023-03-14T10:09:30;5.30;;;2.40;;
3081;SDS011;1551;51.046;7.010;2023-03-14T10:12:19;3.10;;;1.40;;
3081;SDS011;1551;51.046;7.010;2023-03-14T10:15:22;3.60;;;1.80;;
3081;SDS011;1551;51.046;7.010;2023-03-14T10:18:14;2.90;;;0.80;;
3081;SDS011;1551;51.046;7.010;2023-03-14T10:21:16;3.10;;;1.30;;
3081;SDS011;1551;51.046;7.010;2023-03-14T10:24:16;4.40;;;3.33;;
3081;SDS011;1551;51.046;7.010;2023-03-14T10:27:17;4.00;;;3.17;;
3081;SDS011;1551;51.046;7.010;2023-03-14T10:30:26;3.50;;;1.98;;
3081;SDS011;1551;51.046;7.010;2023-03-14T10:33:23;3.50;;;1.60;;
3081;SDS011;1551;51.046;7.010;2023-03-14T10:36:19;3.63;;;1.77;;
3081;SDS011;1551;51.046;7.010;2023-03-14T10:39:23;3.22;;;2.33;;
3081;SDS011;1551;51.046;7.010;2023-03-14T10:42:19;19.75;;;16.48;;
3081;SDS011;1551;51.046;7.010;2023-03-14T10:45:36;12.02;;;8.68;;
3081;SDS011;1551;51.046;7.010;2023-03-14T10:48:32;4.60;;;3.55;;
3081;SDS011;1551;51.046;7.010;2023-03-14T10:51:27;3.42;;;1.20;;
3081;SDS011;1551;51.046;7.010;2023-03-14T10:54:21;4.43;;;1.42;;
3081;SDS011;1551;51.046;7.010;2023-03-14T10:57:12;3.13;;;1.90;;
3081;SDS011;1551;51.046;7.010;2023-03-14T11:00:01;4.40;;;1.83;;
3081;SDS011;1551;51.046;7.010;2023-03-14T11:03:12;4.65;;;2.20;;
3081;SDS011;1551;51.046;7.010;2023-03-14T11:06:08;4.85;;;2.60;;
3081;SDS011;1551;51.046;7.010;2023-03-14T11:12:56;4.00;;;1.93;;
3081;SDS011;1551;51.046;7.010;2023-03-14T11:15:32;4.57;;;1.95;;
3081;SDS011;1551;51.046;7.010;2023-03-14T11:30:24;4.93;;;1.50;;
3081;SDS011;1551;51.046;7.010;2023-03-14T11:33:27;3.80;;;1.30;;
3081;SDS011;1551;51.046;7.010;2023-03-14T11:36:27;4.50;;;3.08;;
3081;SDS011;1551;51.046;7.010;2023-03-14T11:39:21;3.63;;;2.03;;
3081;SDS011;1551;51.046;7.010;2023-03-14T11:42:15;2.80;;;1.37;;
3081;SDS011;1551;51.046;7.010;2023-03-14T11:45:10;3.38;;;1.45;;
3081;SDS011;1551;51.046;7.010;2023-03-14T11:48:10;3.78;;;1.48;;
3081;SDS011;1551;51.046;7.010;2023-03-14T11:51:08;4.00;;;2.00;;
3081;SDS011;1551;51.046;7.010;2023-03-14T11:57:12;4.82;;;1.80;;
3081;SDS011;1551;51.046;7.010;2023-03-14T12:09:33;5.65;;;2.40;;
3081;SDS011;1551;51.046;7.010;2023-03-14T12:12:24;4.90;;;2.60;;
3081;SDS011;1551;51.046;7.010;2023-03-14T12:15:20;4.30;;;2.53;;
3081;SDS011;1551;51.046;7.010;2023-03-14T12:21:43;3.67;;;2.70;;
3081;SDS011;1551;51.046;7.010;2023-03-14T12:24:37;5.68;;;2.90;;
3081;SDS011;1551;51.046;7.010;2023-03-14T12:30:35;4.50;;;3.30;;
3081;SDS011;1551;51.046;7.010;2023-03-14T12:33:29;6.20;;;3.40;;
3081;SDS011;1551;51.046;7.010;2023-03-14T12:36:20;7.23;;;3.10;;
3081;SDS011;1551;51.046;7.010;2023-03-14T12:42:59;3.72;;;2.60;;
3081;SDS011;1551;51.046;7.010;2023-03-14T12:49:03;4.50;;;2.70;;
3081;SDS011;1551;51.046;7.010;2023-03-14T12:52:00;3.70;;;2.03;;
3081;SDS011;1551;51.046;7.010;2023-03-14T13:01:23;4.05;;;2.40;;
3081;SDS011;1551;51.046;7.010;2023-03-14T13:04:12;6.93;;;2.50;;
3081;SDS011;1551;51.046;7.010;2023-03-14T13:07:02;4.33;;;2.60;;
3081;SDS011;1551;51.046;7.010;2023-03-14T13:10:38;5.28;;;2.25;;
3081;SDS011;1551;51.046;7.010;2023-03-14T13:13:20;4.93;;;2.00;;
3081;SDS011;1551;51.046;7.010;2023-03-14T13:16:14;5.17;;;2.57;;
3081;SDS011;1551;51.046;7.010;2023-03-14T13:19:14;4.72;;;2.22;;
3081;SDS011;1551;51.046;7.010;2023-03-14T13:22:21;4.80;;;2.50;;
3081;SDS011;1551;51.046;7.010;2023-03-14T13:25:14;6.45;;;2.30;;
3081;SDS011;1551;51.046;7.010;2023-03-14T13:28:05;5.07;;;2.50;;
3081;SDS011;1551;51.046;7.010;2023-03-14T13:30:58;4.00;;;2.20;;
3081;SDS011;1551;51.046;7.010;2023-03-14T13:34:04;4.20;;;2.47;;
3081;SDS011;1551;51.046;7.010;2023-03-14T13:36:58;5.93;;;2.20;;
3081;SDS011;1551;51.046;7.010;2023-03-14T13:39:51;3.80;;;1.60;;
3081;SDS011;1551;51.046;7.010;2023-03-14T13:42:43;2.90;;;1.50;;
3081;SDS011;1551;51.046;7.010;2023-03-14T13:45:40;6.05;;;1.40;;
3081;SDS011;1551;51.046;7.010;2023-03-14T13:48:33;4.75;;;1.80;;
3081;SDS011;1551;51.046;7.010;2023-03-14T13:51:27;7.30;;;2.33;;
3081;SDS011;1551;51.046;7.010;2023-03-14T13:54:20;5.60;;;2.50;;
3081;SDS011;1551;51.046;7.010;2023-03-14T13:57:10;6.97;;;2.67;;
3081;SDS011;1551;51.046;7.010;2023-03-14T14:00:03;8.03;;;2.60;;
3081;SDS011;1551;51.046;7.010;2023-03-14T14:02:56;8.90;;;3.00;;
3081;SDS011;1551;51.046;7.010;2023-03-14T14:05:47;6.75;;;3.13;;
3081;SDS011;1551;51.046;7.010;2023-03-14T14:08:39;7.32;;;3.08;;
3081;SDS011;1551;51.046;7.010;2023-03-14T14:15:16;6.18;;;3.30;;
3081;SDS011;1551;51.046;7.010;2023-03-14T14:18:12;6.27;;;2.43;;
3081;SDS011;1551;51.046;7.010;2023-03-14T14:21:05;8.67;;;3.60;;
3081;SDS011;1551;51.046;7.010;2023-03-14T14:23:55;10.32;;;3.95;;
3081;SDS011;1551;51.046;7.010;2023-03-14T14:26:51;12.00;;;7.20;;
3081;SDS011;1551;51.046;7.010;2023-03-14T14:29:41;5.10;;;2.40;;
3081;SDS011;1551;51.046;7.010;2023-03-14T14:32:39;7.63;;;3.40;;
3081;SDS011;1551;51.046;7.010;2023-03-14T14:35:32;10.65;;;2.70;;
3081;SDS011;1551;51.046;7.010;2023-03-14T14:38:23;6.43;;;2.47;;
3081;SDS011;1551;51.046;7.010;2023-03-14T14:41:13;5.78;;;1.98;;
3081;SDS011;1551;51.046;7.010;2023-03-14T14:44:03;10.90;;;2.90;;
3081;SDS011;1551;51.046;7.010;2023-03-14T14:46:54;8.68;;;2.05;;
3081;SDS011;1551;51.046;7.010;2023-03-14T14:49:44;12.48;;;3.15;;
3081;SDS011;1551;51.046;7.010;2023-03-14T14:52:41;13.77;;;4.00;;
3081;SDS011;1551;51.046;7.010;2023-03-14T14:55:33;7.80;;;2.80;;
3081;SDS011;1551;51.046;7.010;2023-03-14T14:58:25;9.93;;;3.70;;
3081;SDS011;1551;51.046;7.010;2023-03-14T15:01:14;13.57;;;4.18;;
3081;SDS011;1551;51.046;7.010;2023-03-14T15:04:09;11.10;;;3.17;;
3081;SDS011;1551;51.046;7.010;2023-03-14T15:07:02;9.90;;;4.05;;
3081;SDS011;1551;51.046;7.010;2023-03-14T15:09:51;8.07;;;3.65;;
3081;SDS011;1551;51.046;7.010;2023-03-14T15:12:40;16.50;;;10.23;;
3081;SDS011;1551;51.046;7.010;2023-03-14T15:15:29;12.65;;;7.65;;
3081;SDS011;1551;51.046;7.010;2023-03-14T15:18:18;12.45;;;6.07;;
3081;SDS011;1551;51.046;7.010;2023-03-14T15:21:08;13.10;;;4.15;;
3081;SDS011;1551;51.046;7.010;2023-03-14T15:23:58;9.63;;;3.60;;
3081;SDS011;1551;51.046;7.010;2023-03-14T15:26:47;12.02;;;3.15;;
3081;SDS011;1551;51.046;7.010;2023-03-14T15:29:36;10.95;;;2.25;;
3081;SDS011;1551;51.046;7.010;2023-03-14T15:32:26;11.57;;;2.90;;
3081;SDS011;1551;51.046;7.010;2023-03-14T15:35:15;8.32;;;3.08;;
3081;SDS011;1551;51.046;7.010;2023-03-14T15:38:04;9.30;;;3.20;;
3081;SDS011;1551;51.046;7.010;2023-03-14T15:40:53;12.40;;;2.80;;
3081;SDS011;1551;51.046;7.010;2023-03-14T15:43:42;10.77;;;2.95;;
3081;SDS011;1551;51.046;7.010;2023-03-14T15:46:31;12.00;;;3.00;;
3081;SDS011;1551;51.046;7.010;2023-03-14T15:49:20;10.07;;;2.60;;
3081;SDS011;1551;51.046;7.010;2023-03-14T15:52:09;7.18;;;2.00;;
3081;SDS011;1551;51.046;7.010;2023-03-14T15:54:59;11.52;;;3.60;;
3081;SDS011;1551;51.046;7.010;2023-03-14T15:57:48;14.10;;;8.43;;
3081;SDS011;1551;51.046;7.010;2023-03-14T16:00:38;18.65;;;11.80;;
3081;SDS011;1551;51.046;7.010;2023-03-14T16:03:28;17.77;;;12.88;;
3081;SDS011;1551;51.046;7.010;2023-03-14T16:06:17;13.03;;;6.03;;
3081;SDS011;1551;51.046;7.010;2023-03-14T16:09:06;12.07;;;6.72;;
3081;SDS011;1551;51.046;7.010;2023-03-14T16:11:55;12.05;;;6.55;;
3081;SDS011;1551;51.046;7.010;2023-03-14T16:14:46;7.40;;;3.03;;
3081;SDS011;1551;51.046;7.010;2023-03-14T16:17:35;9.10;;;4.43;;
3081;SDS011;1551;51.046;7.010;2023-03-14T16:20:26;4.93;;;2.00;;
3081;SDS011;1551;51.046;7.010;2023-03-14T16:23:15;10.13;;;2.78;;
3081;SDS011;1551;51.046;7.010;2023-03-14T16:26:07;8.10;;;2.10;;
3081;SDS011;1551;51.046;7.010;2023-03-14T16:28:57;9.35;;;2.42;;
3081;SDS011;1551;51.046;7.010;2023-03-14T16:31:46;5.80;;;1.85;;
3081;SDS011;1551;51.046;7.010;2023-03-14T16:34:38;6.40;;;2.30;;
3081;SDS011;1551;51.046;7.010;2023-03-14T16:37:27;7.43;;;1.80;;
3081;SDS011;1551;51.046;7.010;2023-03-14T16:40:16;7.50;;;2.50;;
3081;SDS011;1551;51.046;7.010;2023-03-14T16:43:05;13.63;;;5.85;;
3081;SDS011;1551;51.046;7.010;2023-03-14T16:45:58;13.95;;;8.38;;
3081;SDS011;1551;51.046;7.010;2023-03-14T16:48:48;12.80;;;4.40;;
3081;SDS011;1551;51.046;7.010;2023-03-14T16:51:37;9.37;;;3.03;;
3081;SDS011;1551;51.046;7.010;2023-03-14T16:54:26;7.45;;;3.22;;
3081;SDS011;1551;51.046;7.010;2023-03-14T16:57:15;6.03;;;1.93;;
3081;SDS011;1551;51.046;7.010;2023-03-14T17:00:04;15.57;;;11.50;;
3081;SDS011;1551;51.046;7.010;2023-03-14T17:02:55;7.10;;;4.50;;
3081;SDS011;1551;51.046;7.010;2023-03-14T17:05:45;6.80;;;2.53;;
3081;SDS011;1551;51.046;7.010;2023-03-14T17:08:36;7.47;;;2.40;;
3081;SDS011;1551;51.046;7.010;2023-03-14T17:11:25;7.72;;;2.10;;
3081;SDS011;1551;51.046;7.010;2023-03-14T17:14:14;4.80;;;1.55;;
3081;SDS011;1551;51.046;7.010;2023-03-14T17:17:03;8.55;;;1.90;;
3081;SDS011;1551;51.046;7.010;2023-03-14T17:19:52;5.90;;;2.10;;
3081;SDS011;1551;51.046;7.010;2023-03-14T17:22:41;12.00;;;6.07;;
3081;SDS011;1551;51.046;7.010;2023-03-14T17:25:29;9.77;;;4.70;;
3081;SDS011;1551;51.046;7.010;2023-03-14T17:28:19;7.40;;;2.20;;
3081;SDS011;1551;51.046;7.010;2023-03-14T17:31:12;4.85;;;1.75;;
3081;SDS011;1551;51.046;7.010;2023-03-14T17:34:03;8.65;;;2.38;;
3081;SDS011;1551;51.046;7.010;2023-03-14T17:36:52;5.18;;;1.40;;
3081;SDS011;1551;51.046;7.010;2023-03-14T17:39:41;6.80;;;2.42;;
3081;SDS011;1551;51.046;7.010;2023-03-14T17:42:30;6.10;;;1.90;;
3081;SDS011;1551;51.046;7.010;2023-03-14T17:45:19;6.97;;;2.35;;
3081;SDS011;1551;51.046;7.010;2023-03-14T17:48:09;6.75;;;3.58;;
3081;SDS011;1551;51.046;7.010;2023-03-14T17:50:58;5.10;;;2.10;;
3081;SDS011;1551;51.046;7.010;2023-03-14T17:53:47;7.25;;;1.95;;
3081;SDS011;1551;51.046;7.010;2023-03-14T17:56:36;7.10;;;2.25;;
3081;SDS011;1551;51.046;7.010;2023-03-14T17:59:25;3.85;;;1.40;;
3081;SDS011;1551;51.046;7.010;2023-03-14T18:02:14;6.72;;;1.70;;
3081;SDS011;1551;51.046;7.010;2023-03-14T18:05:03;7.45;;;2.00;;
3081;SDS011;1551;51.046;7.010;2023-03-14T18:07:53;7.55;;;4.25;;
3081;SDS011;1551;51.046;7.010;2023-03-14T18:10:43;5.38;;;2.50;;
3081;SDS011;1551;51.046;7.010;2023-03-14T18:13:32;5.53;;;2.70;;
3081;SDS011;1551;51.046;7.010;2023-03-14T18:16:21;7.68;;;1.98;;
3081;SDS011;1551;51.046;7.010;2023-03-14T18:19:10;8.70;;;2.67;;
3081;SDS011;1551;51.046;7.010;2023-03-14T18:21:59;6.57;;;3.10;;
3081;SDS011;1551;51.046;7.010;2023-03-14T18:24:48;7.90;;;3.20;;
3081;SDS011;1551;51.046;7.010;2023-03-14T18:27:38;6.05;;;2.13;;
3081;SDS011;1551;51.046;7.010;2023-03-14T18:30:27;5.60;;;2.28;;
3081;SDS011;1551;51.046;7.010;2023-03-14T18:33:17;5.60;;;1.67;;
3081;SDS011;1551;51.046;7.010;2023-03-14T18:36:08;7.68;;;2.10;;
3081;SDS011;1551;51.046;7.010;2023-03-14T18:38:57;4.85;;;2.30;;
3081;SDS011;1551;51.046;7.010;2023-03-14T18:41:46;5.65;;;1.90;;
3081;SDS011;1551;51.046;7.010;2023-03-14T18:44:35;5.90;;;2.10;;
3081;SDS011;1551;51.046;7.010;2023-03-14T18:47:25;5.47;;;2.35;;
3081;SDS011;1551;51.046;7.010;2023-03-14T18:50:15;5.50;;;3.60;;